createdAt,value
2023-04-28T06:45:10.551Z,19.33
2023-04-28T06:50:10.451Z,20.03
2023-04-28T06:55:10.616Z,18.68
2023-04-28T07:00:10.615Z,26.74
2023-04-28T07:05:11.552Z,21.40
2023-04-28T07:10:11.579Z,19.44
2023-04-28T07:15:10.675Z,18.66
2023-04-28T07:20:10.522Z,18.32
2023-04-28T07:30:25.769Z,20.12
2023-04-28T07:35:10.562Z,24.65
2023-04-28T07:40:10.589Z,22.57
2023-04-28T07:45:10.569Z,17.07
2023-04-28T07:50:10.591Z,16.36
2023-04-28T07:55:10.518Z,16.83
2023-04-28T08:00:10.614Z,15.67
2023-04-28T08:05:11.038Z,17.67
2023-04-28T08:10:10.660Z,16.36
2023-04-28T08:15:11.845Z,15.45
2023-04-28T08:20:10.563Z,16.01
2023-04-28T08:25:10.588Z,14.79
2023-04-28T08:30:10.613Z,15.14
2023-04-28T08:35:10.535Z,17.58
2023-04-28T08:40:10.570Z,16.87
2023-04-28T08:45:10.587Z,15.08
2023-04-28T08:50:10.597Z,17.23
2023-04-28T08:55:10.560Z,15.59
2023-04-28T09:00:10.618Z,16.47
2023-04-28T09:05:10.728Z,14.93
2023-04-28T09:10:11.280Z,15.48
2023-04-28T09:15:10.558Z,15.08
2023-04-28T09:20:10.574Z,13.67
2023-04-28T09:25:10.530Z,14.77
2023-04-28T09:30:10.592Z,21.53
2023-04-28T09:35:10.526Z,15.97
2023-04-28T09:40:10.611Z,14.59
2023-04-28T09:45:10.603Z,22.60
2023-04-28T09:50:10.606Z,30.47
2023-04-28T09:55:10.584Z,16.80
2023-04-28T10:00:10.653Z,14.14
2023-04-28T10:05:11.449Z,14.54
2023-04-28T10:10:10.713Z,16.22
2023-04-28T10:15:11.346Z,15.96
2023-04-28T10:20:10.689Z,13.75
2023-04-28T10:30:22.850Z,40.75
2023-04-28T10:35:10.563Z,14.96
2023-04-28T10:40:11.395Z,14.15
2023-04-28T10:45:10.590Z,14.75
2023-04-28T10:50:10.590Z,16.21
2023-04-28T10:55:21.379Z,16.64
2023-04-28T11:00:13.750Z,15.54
2023-04-28T11:05:10.901Z,15.16
2023-04-28T11:10:10.614Z,15.59
2023-04-28T11:15:10.568Z,16.85
2023-04-28T11:20:10.589Z,17.53
2023-04-28T11:30:10.718Z,18.71
2023-04-28T11:35:10.545Z,20.41
2023-04-28T11:40:10.612Z,23.96
2023-04-28T11:45:10.620Z,20.98
2023-04-28T11:50:10.637Z,24.81
2023-04-28T11:55:10.563Z,19.93
2023-04-28T12:00:10.661Z,19.16
2023-04-28T12:05:10.581Z,20.25
2023-04-28T12:10:10.597Z,20.27
2023-04-28T12:15:10.610Z,20.43
2023-04-28T12:20:10.599Z,21.57
2023-04-28T12:25:10.565Z,19.20
2023-04-28T12:30:10.611Z,18.65
2023-04-28T12:35:10.537Z,21.29
2023-04-28T12:40:10.808Z,19.32
2023-04-28T12:45:10.698Z,20.42
2023-04-28T12:50:11.280Z,22.46
2023-04-28T12:55:10.557Z,22.87
2023-04-28T13:00:10.690Z,25.99
2023-04-28T13:05:10.567Z,24.69
2023-04-28T13:10:11.182Z,24.39
2023-04-28T13:15:10.620Z,21.98
2023-04-28T13:20:10.634Z,22.54
2023-04-28T13:25:11.656Z,21.45
2023-04-28T13:30:10.633Z,22.83
2023-04-28T13:35:10.593Z,25.98
2023-04-28T13:40:10.603Z,27.17
2023-04-28T13:45:10.602Z,24.96
2023-04-28T13:50:10.601Z,25.43
2023-04-28T13:55:10.507Z,23.81
2023-04-28T14:00:10.655Z,24.63
2023-04-28T14:05:10.540Z,30.31
2023-04-28T14:10:10.585Z,32.61
2023-04-28T14:15:10.576Z,25.49
2023-04-28T14:20:10.585Z,25.42
2023-04-28T14:25:10.547Z,24.95
2023-04-28T14:30:10.827Z,24.50
2023-04-28T14:35:10.542Z,25.26
2023-04-28T14:40:10.836Z,26.23
2023-04-28T14:45:11.862Z,27.60
2023-04-28T14:50:12.002Z,27.64
2023-04-28T14:55:10.542Z,27.80
2023-04-28T15:00:10.811Z,25.29
2023-04-28T15:05:10.725Z,31.28
2023-04-28T15:10:10.575Z,35.43
2023-04-28T15:15:10.600Z,28.97
2023-04-28T15:20:10.598Z,27.12
2023-04-28T15:25:10.544Z,27.35
2023-04-28T15:30:10.601Z,27.08
2023-04-28T15:35:10.526Z,25.90
2023-04-28T15:40:10.596Z,28.35
2023-04-28T15:45:10.655Z,28.36
2023-04-28T15:50:11.582Z,23.69
2023-04-28T15:55:10.533Z,22.90
2023-04-28T16:00:10.711Z,22.48
2023-04-28T16:05:10.532Z,26.09
2023-04-28T16:10:10.671Z,23.18
2023-04-28T16:15:14.912Z,22.39
2023-04-28T16:20:10.570Z,19.28
2023-04-28T16:25:10.574Z,20.16
2023-04-28T16:30:10.621Z,16.80
2023-04-28T16:35:13.046Z,17.80
2023-04-28T16:40:10.631Z,18.03
2023-04-28T16:45:11.582Z,16.37
2023-04-28T16:50:10.580Z,14.72
2023-04-28T16:55:10.564Z,15.03
2023-04-28T17:00:10.651Z,16.66
2023-04-28T17:05:10.530Z,14.86
2023-04-28T17:10:10.680Z,15.73
2023-04-28T17:15:10.649Z,17.37
2023-04-28T17:20:10.636Z,18.27
2023-04-28T17:25:10.610Z,16.76
2023-04-28T17:30:10.641Z,16.55
2023-04-28T17:35:10.594Z,17.63
2023-04-28T17:40:10.603Z,17.19
2023-04-28T17:45:10.842Z,17.80
2023-04-28T17:50:10.644Z,17.03
2023-04-28T17:55:10.575Z,19.33
2023-04-28T18:00:10.680Z,17.68
2023-04-28T18:05:10.692Z,18.64
2023-04-28T18:10:10.582Z,20.99
2023-04-28T18:15:12.132Z,24.02
2023-04-28T18:20:13.580Z,26.86
2023-04-28T18:25:10.658Z,27.79
2023-04-28T18:30:10.650Z,26.60
2023-04-28T18:35:10.550Z,28.18
2023-04-28T18:40:10.600Z,32.44
2023-04-28T18:50:10.596Z,39.63
2023-04-28T18:55:10.569Z,32.70
2023-04-28T19:00:10.626Z,28.10
2023-04-28T19:05:10.569Z,27.33
2023-04-28T19:10:10.593Z,25.89
2023-04-28T19:15:10.591Z,23.57
2023-04-28T19:20:10.684Z,28.87
2023-04-28T19:30:10.786Z,23.96
2023-04-28T19:35:10.597Z,23.87
2023-04-28T19:40:10.527Z,23.50
2023-04-28T19:45:10.676Z,24.08
2023-04-28T19:50:12.161Z,26.69
2023-04-28T19:55:10.545Z,26.21
2023-04-28T20:00:10.602Z,27.07
2023-04-28T20:05:10.621Z,27.83
2023-04-28T20:10:10.600Z,28.32
2023-04-28T20:15:10.548Z,32.47
2023-04-28T20:20:10.596Z,33.09
2023-04-28T20:25:10.661Z,30.98
2023-04-28T20:30:10.717Z,30.54
2023-04-28T20:35:10.730Z,32.45
2023-04-28T20:40:10.553Z,32.16
2023-04-28T20:45:10.582Z,32.73
2023-04-28T20:50:11.854Z,31.28
2023-04-28T20:55:10.535Z,31.58
2023-04-28T21:00:10.607Z,31.20
2023-04-28T21:05:10.594Z,30.73
2023-04-28T21:10:11.825Z,31.94
2023-04-28T21:15:10.547Z,34.04
2023-04-28T21:20:10.714Z,33.91
2023-04-28T21:25:10.598Z,37.04
2023-04-28T21:30:10.593Z,37.65
2023-04-28T21:35:10.632Z,37.91
2023-04-28T21:40:10.542Z,38.48
2023-04-28T21:45:10.577Z,41.82
2023-04-28T21:50:10.674Z,38.42
2023-04-28T21:55:10.635Z,36.07
2023-04-28T22:00:10.626Z,40.49
2023-04-28T22:05:10.644Z,38.01
2023-04-28T22:10:10.587Z,36.75
2023-04-28T22:15:10.590Z,37.00
2023-04-28T22:20:10.619Z,36.90
2023-04-28T22:30:10.610Z,42.23
2023-04-28T22:35:10.604Z,39.88
2023-04-28T22:40:10.594Z,38.28
2023-04-28T22:45:10.934Z,41.64
2023-04-28T22:50:11.267Z,40.94
2023-04-28T22:55:10.686Z,40.39
2023-04-28T23:00:10.657Z,40.67
2023-04-28T23:05:10.596Z,38.78
2023-04-28T23:10:11.172Z,43.14
2023-04-28T23:15:10.516Z,42.03
2023-04-28T23:20:10.613Z,40.35
2023-04-28T23:25:10.531Z,39.80
2023-04-28T23:30:10.587Z,44.27
2023-04-28T23:35:10.601Z,37.53
2023-04-28T23:40:10.599Z,39.40
2023-04-28T23:45:10.578Z,36.43
2023-04-28T23:50:11.503Z,41.56
2023-04-28T23:55:10.518Z,37.95
